Time;durP1;ratioP1;P1;durP2;ratioP2;P2;SDS_P1;SDS_P2;PMS_P1;PMS_P2;Temp;Humidity;BMP_temperature;BMP_pressure;BME280_temperature;BME280_humidity;BME280_pressure;Samples;Min_cycle;Max_cycle;Signal;HPM_P1;HPM_P2
2022/10/08 00:01:47;;;;;;;19.00;9.80;;;;;;;11.49;80.54;100883.50;88767;1297;22660;-72
2022/10/08 00:03:54;;;;;;;13.90;9.80;;;;;;;11.48;80.65;100882.11;88774;1291;22050;-72
2022/10/08 00:06:00;;;;;;;13.40;9.10;;;;;;;11.47;80.76;100881.63;88440;1306;22087;-72
2022/10/08 00:08:06;;;;;;;10.60;9.50;;;;;;;11.46;80.92;100877.96;88779;1280;21992;-74
2022/10/08 00:10:11;;;;;;;13.30;10.00;;;;;;;11.47;80.86;100873.95;88499;1306;22047;-74
2022/10/08 00:12:17;;;;;;;14.50;8.90;;;;;;;11.45;80.71;100871.02;88671;1299;22701;-72
2022/10/08 00:14:23;;;;;;;13.70;9.70;;;;;;;11.44;80.80;100871.23;88768;1291;22634;-72
2022/10/08 00:16:36;;;;;;;18.70;10.60;;;;;;;11.43;80.93;100862.02;88760;1290;22061;-72
2022/10/08 00:18:42;;;;;;;14.50;10.30;;;;;;;11.42;81.03;100861.16;88796;1290;22011;-72
2022/10/08 00:20:47;;;;;;;12.20;9.90;;;;;;;11.41;81.01;100858.23;88508;1306;22598;-72
2022/10/08 00:22:53;;;;;;;12.50;9.60;;;;;;;11.40;81.30;100856.71;88781;1297;22653;-72
2022/10/08 00:24:58;;;;;;;11.40;9.70;;;;;;;11.38;81.13;100853.95;88763;1289;22058;-72
2022/10/08 00:27:04;;;;;;;14.90;10.00;;;;;;;11.37;81.43;100853.28;88775;1284;22044;-73
2022/10/08 00:29:12;;;;;;;12.10;9.10;;;;;;;11.38;81.34;100847.86;88747;1299;22694;-73
2022/10/08 00:31:19;;;;;;;10.20;9.20;;;;;;;11.39;81.21;100846.79;88770;1277;22144;-73
2022/10/08 00:33:24;;;;;;;16.70;9.20;;;;;;;11.39;81.38;100841.71;88782;1294;22027;-72
2022/10/08 00:35:30;;;;;;;10.10;8.10;;;;;;;11.39;81.32;100842.23;88606;1302;22083;-72
2022/10/08 00:37:36;;;;;;;12.60;9.20;;;;;;;11.40;81.46;100840.45;88504;1306;22025;-71
2022/10/08 00:39:41;;;;;;;18.20;8.60;;;;;;;11.41;81.48;100838.66;88747;1299;22076;-71
2022/10/08 00:41:49;;;;;;;11.70;8.30;;;;;;;11.42;81.33;100835.32;88746;1299;22030;-72
2022/10/08 00:43:56;;;;;;;12.10;9.20;;;;;;;11.42;81.35;100831.48;88739;1291;22040;-72
2022/10/08 00:46:01;;;;;;;10.30;8.70;;;;;;;11.43;81.30;100827.95;88736;1281;22024;-72
2022/10/08 00:48:10;;;;;;;9.80;8.30;;;;;;;11.44;81.42;100823.55;88767;1299;22087;-71
2022/10/08 00:50:19;;;;;;;10.50;8.80;;;;;;;11.44;81.47;100824.42;88673;1299;22061;-71
2022/10/08 00:52:25;;;;;;;11.80;8.80;;;;;;;11.43;81.45;100821.83;88433;1298;22152;-72
2022/10/08 00:54:31;;;;;;;13.90;8.30;;;;;;;11.44;81.58;100818.66;88745;1296;22063;-72
2022/10/08 00:56:38;;;;;;;11.40;8.70;;;;;;;11.44;81.42;100813.95;88801;1294;22022;-72
2022/10/08 00:58:44;;;;;;;12.80;8.90;;;;;;;11.44;81.26;100810.09;88810;1296;22602;-72
2022/10/08 01:00:49;;;;;;;11.60;8.10;;;;;;;11.44;81.53;100808.19;88789;1296;21992;-72
2022/10/08 01:02:55;;;;;;;17.90;8.80;;;;;;;11.45;81.56;100802.91;88464;1291;22103;-72
2022/10/08 01:05:00;;;;;;;11.90;9.30;;;;;;;11.47;81.48;100797.92;88801;1294;22032;-72
2022/10/08 01:07:09;;;;;;;12.00;8.90;;;;;;;11.51;81.78;100798.33;88589;1304;22115;-72
2022/10/08 01:09:18;;;;;;;11.60;9.10;;;;;;;11.55;81.88;100796.27;88838;1297;22065;-73
2022/10/08 01:11:36;;;;;;;11.00;9.00;;;;;;;11.59;81.90;100791.91;88814;1284;22049;-73
2022/10/08 01:13:46;;;;;;;12.20;8.50;;;;;;;11.63;81.86;100788.12;88712;1293;22063;-72
2022/10/08 01:15:55;;;;;;;14.20;9.00;;;;;;;11.67;81.80;100784.83;88808;1296;22038;-71
2022/10/08 01:18:09;;;;;;;11.50;8.40;;;;;;;11.69;81.70;100783.54;88610;1299;22117;-72
2022/10/08 01:20:29;;;;;;;13.40;8.30;;;;;;;11.72;81.59;100781.65;88753;1288;22063;-72
2022/10/08 01:22:47;;;;;;;12.70;8.50;;;;;;;11.73;81.49;100780.05;88816;1296;22060;-72
2022/10/08 01:27:27;;;;;;;11.40;9.20;;;;;;;11.75;81.41;100768.80;88795;1285;22039;-72
2022/10/08 01:29:35;;;;;;;13.70;9.60;;;;;;;11.75;81.50;100763.54;88570;1300;22065;-71
2022/10/08 01:31:43;;;;;;;10.30;8.50;;;;;;;11.79;81.44;100761.68;88454;1302;22104;-71
2022/10/08 01:33:51;;;;;;;16.50;8.80;;;;;;;11.81;81.42;100759.14;88807;1271;22681;-71
2022/10/08 01:35:58;;;;;;;12.30;8.90;;;;;;;11.82;81.25;100757.20;88800;1293;22064;-71
2022/10/08 01:38:05;;;;;;;13.10;8.60;;;;;;;11.85;81.38;100756.73;88809;1295;22030;-73
2022/10/08 01:40:24;;;;;;;13.10;9.00;;;;;;;11.87;81.18;100754.40;88782;1291;22064;-73
2022/10/08 01:42:29;;;;;;;11.40;8.60;;;;;;;11.86;81.18;100753.91;88797;1293;22079;-71
2022/10/08 01:44:37;;;;;;;11.80;9.10;;;;;;;11.85;81.09;100754.45;88811;1287;22032;-71
2022/10/08 01:46:45;;;;;;;12.70;9.10;;;;;;;11.81;81.00;100748.33;88702;1297;22066;-72
2022/10/08 01:48:50;;;;;;;10.40;9.30;;;;;;;11.77;81.15;100745.46;88796;1296;22033;-71
2022/10/08 01:50:58;;;;;;;15.70;8.30;;;;;;;11.75;81.18;100745.39;88805;1294;22652;-71
2022/10/08 01:53:06;;;;;;;14.30;8.70;;;;;;;11.73;81.08;100745.11;88818;1296;22619;-71
2022/10/08 01:55:13;;;;;;;10.20;8.80;;;;;;;11.71;81.06;100743.61;88795;1285;22108;-71
2022/10/08 01:57:19;;;;;;;10.90;8.50;;;;;;;11.68;80.82;100740.39;88813;1285;22119;-73
2022/10/08 01:59:25;;;;;;;12.10;9.60;;;;;;;11.63;81.06;100736.73;88601;1304;22110;-73
2022/10/08 02:01:38;;;;;;;13.50;9.40;;;;;;;11.61;81.45;100736.64;88579;1304;22103;-73
2022/10/08 02:04:31;;;;;;;11.20;8.50;;;;;;;11.62;81.54;100734.85;88787;1285;22034;-71
2022/10/08 02:06:09;;;;;;;16.50;9.30;;;;;;;11.63;81.70;100732.53;88594;1304;22085;-71
2022/10/08 02:08:15;;;;;;;11.20;8.80;;;;;;;11.66;81.52;100734.88;88797;1287;22011;-71
2022/10/08 02:10:22;;;;;;;10.70;9.40;;;;;;;11.68;81.62;100733.95;88780;1294;22063;-71
2022/10/08 02:12:27;;;;;;;13.00;9.70;;;;;;;11.70;81.78;100734.36;88813;1285;22119;-72
2022/10/08 02:14:33;;;;;;;16.50;8.60;;;;;;;11.73;81.79;100731.83;88782;1284;22134;-72
2022/10/08 02:16:42;;;;;;;13.80;9.80;;;;;;;11.75;81.85;100735.94;88584;1304;22075;-72
2022/10/08 02:18:57;;;;;;;11.40;8.50;;;;;;;11.77;81.78;100728.02;88784;1295;22666;-72
2022/10/08 02:21:05;;;;;;;12.70;9.40;;;;;;;11.77;81.50;100732.21;88577;1295;22076;-72
2022/10/08 02:23:15;;;;;;;12.60;9.50;;;;;;;11.76;81.57;100730.29;88780;1294;22042;-71
2022/10/08 02:25:26;;;;;;;14.20;9.90;;;;;;;11.75;81.53;100727.38;88779;1274;22652;-71
2022/10/08 02:27:49;;;;;;;13.60;9.20;;;;;;;11.73;81.46;100723.80;88796;1296;22614;-71
2022/10/08 02:30:02;;;;;;;15.20;9.60;;;;;;;11.71;81.60;100723.52;88761;1296;22106;-71
2022/10/08 02:32:12;;;;;;;12.30;9.40;;;;;;;11.70;81.85;100722.50;88789;1290;22025;-71
2022/10/08 02:34:23;;;;;;;10.70;9.00;;;;;;;11.68;81.70;100717.32;88784;1296;22053;-71
2022/10/08 02:36:36;;;;;;;12.80;9.30;;;;;;;11.65;82.02;100715.36;88795;1285;22064;-71
2022/10/08 02:38:44;;;;;;;12.20;9.40;;;;;;;11.60;81.83;100710.97;88588;1304;22071;-71
2022/10/08 02:40:51;;;;;;;12.40;9.20;;;;;;;11.57;81.85;100714.95;88781;1284;22027;-71
2022/10/08 02:43:01;;;;;;;10.70;8.80;;;;;;;11.53;81.88;100708.42;88681;1299;22140;-72
2022/10/08 02:45:09;;;;;;;10.00;9.00;;;;;;;11.52;81.97;100708.31;88794;1288;22037;-73
2022/10/08 02:47:17;;;;;;;14.90;10.00;;;;;;;11.48;82.02;100707.05;88821;1294;22655;-71
2022/10/08 02:49:24;;;;;;;11.80;10.10;;;;;;;11.45;82.22;100706.98;88599;1304;22044;-71
2022/10/08 02:51:30;;;;;;;11.00;9.20;;;;;;;11.42;82.12;100707.80;88790;1281;22182;-71
2022/10/08 02:53:37;;;;;;;13.10;9.40;;;;;;;11.38;82.68;100709.16;88579;1293;22062;-72
2022/10/08 02:55:48;;;;;;;12.00;8.70;;;;;;;11.36;82.46;100709.76;88805;1287;22042;-72
2022/10/08 02:57:58;;;;;;;12.40;9.90;;;;;;;11.34;82.48;100712.08;88595;1304;22662;-72
2022/10/08 03:00:05;;;;;;;12.20;9.30;;;;;;;11.31;82.62;100710.65;88565;1298;22042;-72
2022/10/08 03:02:14;;;;;;;12.60;9.10;;;;;;;11.27;82.78;100705.71;88812;1294;22034;-71
2022/10/08 03:04:23;;;;;;;14.00;9.00;;;;;;;11.25;82.73;100705.06;88797;1296;22725;-71
2022/10/08 03:06:31;;;;;;;13.10;10.00;;;;;;;11.24;83.00;100703.38;88771;1281;22675;-71
2022/10/08 03:08:38;;;;;;;14.00;9.50;;;;;;;11.21;83.08;100703.14;88813;1291;22055;-71
2022/10/08 03:10:43;;;;;;;13.00;9.40;;;;;;;11.19;83.14;100705.31;88788;1277;22042;-71
2022/10/08 03:12:49;;;;;;;16.90;10.70;;;;;;;11.16;83.26;100705.75;88799;1287;22066;-72
2022/10/08 03:14:55;;;;;;;11.40;9.50;;;;;;;11.12;83.25;100703.61;88792;1296;22116;-72
2022/10/08 03:17:00;;;;;;;12.30;9.40;;;;;;;11.09;83.20;100702.67;88770;1296;22236;-72
2022/10/08 03:19:06;;;;;;;13.50;9.40;;;;;;;11.07;83.49;100702.20;88783;1279;22083;-72
2022/10/08 03:21:12;;;;;;;14.90;10.00;;;;;;;11.05;83.56;100700.56;88780;1294;22047;-72
2022/10/08 03:23:18;;;;;;;13.10;10.50;;;;;;;11.02;83.51;100701.84;88816;1296;22589;-71
2022/10/08 03:25:23;;;;;;;15.00;10.30;;;;;;;11.00;83.59;100702.10;88797;1274;22069;-71
2022/10/08 03:27:29;;;;;;;14.30;10.20;;;;;;;10.96;83.67;100698.06;88704;1299;22102;-72
2022/10/08 03:29:35;;;;;;;14.70;10.80;;;;;;;10.94;83.79;100696.39;88827;1296;22088;-72
2022/10/08 03:31:40;;;;;;;13.20;11.70;;;;;;;10.93;83.91;100697.83;88821;1296;22598;-72
2022/10/08 03:33:50;;;;;;;12.40;10.90;;;;;;;10.90;84.55;100696.52;88838;1284;22695;-72
2022/10/08 03:35:55;;;;;;;13.30;10.00;;;;;;;10.89;84.58;100696.41;88850;1287;21949;-72
2022/10/08 03:38:01;;;;;;;16.90;11.60;;;;;;;10.87;84.60;100693.48;88572;1291;22069;-73
2022/10/08 03:40:10;;;;;;;12.80;11.00;;;;;;;10.87;84.75;100689.30;88805;1284;22072;-73
2022/10/08 03:42:15;;;;;;;11.10;9.90;;;;;;;10.87;84.69;100686.00;88065;1296;1002014;-73
2022/10/08 03:44:21;;;;;;;17.80;11.30;;;;;;;10.87;85.02;100686.50;88555;1306;22737;-73
2022/10/08 03:46:26;;;;;;;17.50;12.00;;;;;;;10.88;85.12;100680.88;88827;1285;22045;-73
2022/10/08 03:48:32;;;;;;;13.40;10.30;;;;;;;10.91;85.39;100684.48;88587;1283;22064;-73
2022/10/08 03:50:37;;;;;;;13.00;11.60;;;;;;;10.92;85.33;100684.39;88567;1298;22059;-73
2022/10/08 03:52:43;;;;;;;11.60;10.30;;;;;;;10.93;85.48;100682.10;88700;1298;22076;-72
2022/10/08 03:54:48;;;;;;;17.90;12.10;;;;;;;10.92;85.46;100682.47;88810;1296;22059;-72
2022/10/08 03:56:54;;;;;;;14.10;11.00;;;;;;;10.94;85.57;100684.19;88561;1298;22076;-71
2022/10/08 03:59:00;;;;;;;12.60;10.00;;;;;;;10.95;85.79;100678.20;88579;1304;22056;-71
2022/10/08 04:01:06;;;;;;;15.10;11.10;;;;;;;10.97;85.88;100679.17;88810;1296;22041;-71
2022/10/08 04:03:12;;;;;;;15.50;11.00;;;;;;;11.01;85.92;100684.09;88804;1285;22096;-72
2022/10/08 04:05:18;;;;;;;11.50;9.60;;;;;;;11.04;86.13;100681.38;88806;1289;22563;-72
2022/10/08 04:07:23;;;;;;;17.70;11.10;;;;;;;11.08;86.26;100683.69;88806;1284;22033;-72
2022/10/08 04:09:29;;;;;;;15.00;11.00;;;;;;;11.10;86.21;100683.06;88786;1296;22111;-73
2022/10/08 04:11:34;;;;;;;17.30;11.00;;;;;;;11.14;86.33;100681.56;88782;1296;22024;-72
2022/10/08 04:13:41;;;;;;;12.20;10.90;;;;;;;11.18;86.35;100680.89;88800;1276;22040;-73
2022/10/08 04:15:47;;;;;;;12.70;11.20;;;;;;;11.22;86.35;100679.84;88747;1299;22059;-73
2022/10/08 04:17:52;;;;;;;15.10;11.30;;;;;;;11.25;86.23;100677.13;88815;1283;22088;-71
2022/10/08 04:19:58;;;;;;;12.30;10.40;;;;;;;11.28;86.54;100676.50;88776;1284;22604;-71
2022/10/08 04:22:03;;;;;;;12.30;11.00;;;;;;;11.32;86.54;100674.62;88566;1304;22079;-72
2022/10/08 04:24:10;;;;;;;14.50;11.00;;;;;;;11.35;86.44;100677.46;88821;1294;22099;-71
2022/10/08 04:26:16;;;;;;;13.90;11.40;;;;;;;11.38;86.47;100676.67;88598;1304;22057;-71
2022/10/08 04:28:22;;;;;;;16.60;11.30;;;;;;;11.41;86.61;100673.58;88836;1296;22329;-71
2022/10/08 04:30:28;;;;;;;22.00;11.70;;;;;;;11.45;86.50;100671.89;88843;1296;22045;-71
2022/10/08 04:32:34;;;;;;;19.60;10.90;;;;;;;11.48;86.45;100672.83;88579;1298;22086;-71
2022/10/08 04:34:40;;;;;;;13.30;10.90;;;;;;;11.50;86.54;100668.52;88822;1294;22013;-71
2022/10/08 04:36:45;;;;;;;14.30;11.40;;;;;;;11.52;86.47;100672.65;88807;1296;22636;-73
2022/10/08 04:38:51;;;;;;;11.30;10.10;;;;;;;11.56;86.58;100670.58;88791;1294;22031;-73
2022/10/08 04:41:05;;;;;;;17.10;12.40;;;;;;;11.59;86.66;100670.48;88798;1291;22019;-73
2022/10/08 04:43:10;;;;;;;12.90;11.00;;;;;;;11.61;86.68;100670.22;88815;1284;22632;-71
2022/10/08 04:45:16;;;;;;;13.80;11.60;;;;;;;11.63;86.60;100666.83;88783;1296;22058;-71
2022/10/08 04:47:21;;;;;;;13.80;10.90;;;;;;;11.67;86.54;100667.39;88580;1291;22125;-71
2022/10/08 04:49:28;;;;;;;13.10;10.40;;;;;;;11.69;86.42;100663.12;88763;1284;22025;-71
2022/10/08 04:51:34;;;;;;;14.70;11.50;;;;;;;11.71;86.79;100665.46;88811;1287;22045;-72
2022/10/08 04:53:39;;;;;;;12.60;11.30;;;;;;;11.74;86.85;100668.52;88557;1304;22122;-73
2022/10/08 04:55:45;;;;;;;11.90;10.70;;;;;;;11.77;86.85;100667.69;88544;1298;22099;-73
2022/10/08 04:57:51;;;;;;;20.20;10.50;;;;;;;11.80;86.78;100659.70;88809;1284;22028;-73
2022/10/08 04:59:56;;;;;;;13.70;9.90;;;;;;;11.84;87.09;100659.77;88584;1298;22677;-74
2022/10/08 05:02:02;;;;;;;13.90;11.40;;;;;;;11.90;87.04;100663.05;88832;1296;22074;-72
2022/10/08 05:04:08;;;;;;;13.00;9.90;;;;;;;11.94;86.86;100663.44;88816;1281;22733;-72
2022/10/08 05:06:15;;;;;;;12.30;9.50;;;;;;;11.99;86.81;100665.33;88810;1296;22682;-72
2022/10/08 05:08:21;;;;;;;12.30;9.40;;;;;;;12.02;86.83;100660.48;88830;1284;22022;-72
2022/10/08 05:10:26;;;;;;;11.80;10.10;;;;;;;12.05;86.80;100663.84;88814;1296;22035;-72
2022/10/08 05:12:32;;;;;;;17.00;10.10;;;;;;;12.09;86.70;100666.67;88602;1294;298985;-72
2022/10/08 05:14:38;;;;;;;15.70;10.90;;;;;;;12.12;86.79;100662.52;88804;1296;22017;-72
2022/10/08 05:16:44;;;;;;;12.60;11.00;;;;;;;12.15;86.78;100664.66;88582;1298;22706;-72
2022/10/08 05:18:50;;;;;;;14.20;10.40;;;;;;;12.18;86.66;100666.50;88806;1287;22126;-72
2022/10/08 05:20:56;;;;;;;14.80;10.40;;;;;;;12.22;86.69;100670.02;88570;1306;22032;-72
2022/10/08 05:23:02;;;;;;;14.20;9.60;;;;;;;12.26;86.69;100669.48;88810;1294;22056;-72
2022/10/08 05:25:09;;;;;;;11.90;9.00;;;;;;;12.32;86.60;100672.20;88565;1304;22085;-72
2022/10/08 05:27:14;;;;;;;13.50;10.00;;;;;;;12.38;86.58;100668.47;88829;1296;22657;-73
2022/10/08 05:29:20;;;;;;;13.20;9.40;;;;;;;12.44;86.50;100669.65;88578;1304;22579;-73
2022/10/08 05:31:27;;;;;;;10.80;9.70;;;;;;;12.50;86.43;100670.96;88805;1284;22043;-73
2022/10/08 05:33:33;;;;;;;11.30;9.70;;;;;;;12.56;86.56;100672.29;88746;1299;22102;-73
2022/10/08 05:35:39;;;;;;;11.40;10.00;;;;;;;12.63;86.37;100672.34;88795;1288;22627;-73
2022/10/08 05:37:45;;;;;;;14.10;9.60;;;;;;;12.70;86.21;100672.25;88800;1288;22083;-73
2022/10/08 05:39:50;;;;;;;13.00;10.50;;;;;;;12.77;86.21;100674.89;88798;1296;22040;-73
2022/10/08 05:41:56;;;;;;;15.50;10.10;;;;;;;13.04;86.68;100673.20;88803;1290;22134;-73
2022/10/08 05:44:02;;;;;;;14.10;9.10;;;;;;;13.34;86.32;100673.36;88569;1298;22048;-73
2022/10/08 05:46:08;;;;;;;10.60;9.50;;;;;;;13.41;85.67;100676.17;88804;1296;22081;-73
2022/10/08 05:48:13;;;;;;;14.20;10.10;;;;;;;13.47;85.17;100673.83;88579;1297;22097;-73
2022/10/08 05:50:19;;;;;;;13.60;10.00;;;;;;;13.52;85.02;100675.17;88812;1287;21992;-73
2022/10/08 05:52:25;;;;;;;12.90;10.30;;;;;;;13.58;84.80;100678.40;88827;1284;22027;-72
2022/10/08 05:54:31;;;;;;;10.70;9.60;;;;;;;13.66;84.66;100682.04;88836;1284;22640;-72
2022/10/08 05:56:36;;;;;;;16.40;10.50;;;;;;;13.75;84.42;100683.59;88799;1296;22066;-72
2022/10/08 05:58:42;;;;;;;10.70;9.70;;;;;;;13.82;84.05;100682.36;88760;1287;22171;-73
2022/10/08 06:00:58;;;;;;;14.70;11.10;;;;;;;13.86;83.88;100688.86;88595;1289;22047;-73
2022/10/08 06:03:03;;;;;;;11.40;9.80;;;;;;;13.87;83.70;100686.49;88807;1284;22111;-72
2022/10/08 06:05:09;;;;;;;10.90;9.60;;;;;;;13.88;83.53;100688.73;88820;1296;22079;-72
2022/10/08 06:07:15;;;;;;;13.40;10.20;;;;;;;13.93;83.47;100693.40;88585;1304;22045;-72
2022/10/08 06:09:21;;;;;;;14.40;11.40;;;;;;;13.95;83.21;100697.19;88567;1304;22706;-73
2022/10/08 06:11:27;;;;;;;10.90;9.80;;;;;;;13.96;83.15;100695.78;88791;1295;22947;-73
2022/10/08 06:13:33;;;;;;;13.10;10.20;;;;;;;13.96;82.95;100697.86;88556;1290;22046;-74
2022/10/08 06:15:38;;;;;;;14.70;10.10;;;;;;;13.95;82.83;100696.49;88820;1276;22052;-74
2022/10/08 06:17:44;;;;;;;12.00;10.10;;;;;;;13.96;82.90;100693.30;88709;1299;22711;-73
2022/10/08 06:19:50;;;;;;;15.90;11.30;;;;;;;13.97;82.79;100690.46;88808;1296;22567;-73
2022/10/08 06:21:56;;;;;;;11.10;9.90;;;;;;;13.97;82.72;100683.61;88802;1284;22094;-73
2022/10/08 06:24:02;;;;;;;13.60;9.70;;;;;;;13.98;82.80;100682.33;88815;1296;22048;-73
2022/10/08 06:26:08;;;;;;;16.60;10.20;;;;;;;14.00;82.78;100684.16;88821;1287;22039;-73
2022/10/08 06:28:26;;;;;;;11.80;10.30;;;;;;;14.03;82.83;100686.14;88820;1278;22109;-73
2022/10/08 06:30:41;;;;;;;11.30;9.90;;;;;;;14.05;82.89;100687.78;88731;1299;22082;-73
2022/10/08 06:32:51;;;;;;;14.20;11.30;;;;;;;14.07;82.78;100685.58;88561;1299;22073;-73
2022/10/08 06:35:07;;;;;;;14.80;11.00;;;;;;;14.10;82.81;100687.92;88555;1300;22355;-73
2022/10/08 06:37:26;;;;;;;11.50;10.30;;;;;;;14.14;82.84;100692.79;88593;1301;22150;-73
2022/10/08 06:40:15;;;;;;;13.40;10.30;;;;;;;14.20;82.88;100692.17;88710;1282;22117;-73
2022/10/08 06:42:43;;;;;;;14.90;11.50;;;;;;;14.22;82.65;100693.79;88572;1304;22092;-74
2022/10/08 06:45:14;;;;;;;11.70;10.40;;;;;;;14.25;82.67;100694.58;88498;1306;22575;-75
2022/10/08 06:47:48;;;;;;;11.10;10.00;;;;;;;14.30;82.70;100696.07;88755;1295;22644;-74
2022/10/08 06:50:26;;;;;;;13.00;10.90;;;;;;;14.34;82.68;100695.33;88637;1287;22109;-74
2022/10/08 06:53:00;;;;;;;15.20;10.70;;;;;;;14.39;82.68;100697.17;88691;1299;22683;-73
2022/10/08 06:55:23;;;;;;;11.80;10.70;;;;;;;14.45;82.69;100697.45;88457;1306;22059;-73
2022/10/08 06:57:51;;;;;;;14.00;10.20;;;;;;;14.50;82.56;100698.84;88566;1298;22787;-74
2022/10/08 07:00:14;;;;;;;12.70;9.70;;;;;;;14.54;82.38;100699.34;88464;1298;22265;-73
2022/10/08 07:03:11;;;;;;;14.00;9.80;;;;;;;14.57;82.38;100694.77;88444;1298;22082;-73
2022/10/08 07:05:48;;;;;;;17.80;10.90;;;;;;;14.60;82.37;100699.70;88502;1306;22085;-73
2022/10/08 07:08:11;;;;;;;14.50;11.30;;;;;;;14.67;82.30;100703.58;88483;1301;22042;-73
2022/10/08 07:10:35;;;;;;;13.10;10.40;;;;;;;14.71;82.28;100700.59;88476;1298;22112;-73
2022/10/08 07:13:00;;;;;;;14.90;10.60;;;;;;;14.75;82.18;100694.20;88646;1284;22113;-74
2022/10/08 07:15:16;;;;;;;12.70;10.10;;;;;;;14.81;82.17;100696.02;88718;1285;22710;-74
2022/10/08 07:17:52;;;;;;;11.60;9.90;;;;;;;14.86;82.03;100697.50;88559;1298;22068;-73
2022/10/08 07:20:55;;;;;;;14.70;11.60;;;;;;;14.93;82.01;100696.64;88379;1306;22746;-74
2022/10/08 07:23:12;;;;;;;11.80;10.60;;;;;;;15.00;81.87;100694.38;88465;1306;22066;-74
2022/10/08 07:26:17;;;;;;;16.10;11.60;;;;;;;15.06;81.84;100692.98;88444;1301;22089;-74
2022/10/08 07:28:54;;;;;;;12.70;11.20;;;;;;;15.13;81.82;100688.08;88574;1303;22080;-74
2022/10/08 07:31:19;;;;;;;15.40;10.70;;;;;;;15.19;81.67;100688.83;88631;1299;22837;-74
2022/10/08 07:33:38;;;;;;;18.00;11.70;;;;;;;15.24;81.49;100688.57;88732;1297;22111;-71
2022/10/08 07:38:40;;;;;;;14.80;11.00;;;;;;;15.32;81.34;100679.71;88552;1296;22693;-74
2022/10/08 07:40:59;;;;;;;13.30;9.70;;;;;;;15.35;81.35;100681.27;88545;1298;22072;-73
2022/10/08 07:43:15;;;;;;;16.00;10.70;;;;;;;15.41;81.15;100679.55;88738;1297;22116;-73
2022/10/08 07:45:21;;;;;;;14.00;10.40;;;;;;;15.47;81.02;100678.15;88771;1297;22011;-73
2022/10/08 07:47:26;;;;;;;18.10;10.90;;;;;;;15.54;81.13;100680.12;88774;1288;22050;-74
2022/10/08 07:49:32;;;;;;;13.20;10.30;;;;;;;15.61;81.08;100676.39;88546;1304;22696;-74
2022/10/08 07:51:37;;;;;;;13.70;11.10;;;;;;;15.68;81.12;100674.61;88559;1298;22179;-74
2022/10/08 07:53:43;;;;;;;14.40;10.50;;;;;;;15.75;80.78;100674.42;88777;1286;22039;-74
2022/10/08 07:55:49;;;;;;;14.10;10.80;;;;;;;15.82;80.65;100674.75;88754;1299;22021;-73
2022/10/08 07:57:54;;;;;;;13.40;10.50;;;;;;;15.86;80.31;100673.12;88539;1298;22059;-74
2022/10/08 08:00:00;;;;;;;11.80;10.50;;;;;;;15.91;80.14;100671.61;88554;1285;22117;-74
2022/10/08 08:02:05;;;;;;;16.40;11.10;;;;;;;15.97;80.20;100672.67;88762;1279;22535;-74
2022/10/08 08:04:11;;;;;;;11.70;9.90;;;;;;;16.06;80.16;100671.30;88767;1299;22057;-74
2022/10/08 08:06:17;;;;;;;12.40;9.50;;;;;;;16.15;79.92;100666.59;88541;1306;22054;-74
2022/10/08 08:08:23;;;;;;;13.20;10.60;;;;;;;16.22;79.66;100668.11;88715;1299;22628;-74
2022/10/08 08:10:28;;;;;;;11.50;9.80;;;;;;;16.27;79.17;100666.59;88557;1297;22036;-74
2022/10/08 08:12:34;;;;;;;10.00;8.90;;;;;;;16.36;79.46;100663.43;88552;1305;22702;-74
2022/10/08 08:14:42;;;;;;;14.00;10.30;;;;;;;16.51;79.49;100665.94;88791;1288;22030;-74
2022/10/08 08:16:48;;;;;;;11.00;9.40;;;;;;;16.66;78.92;100660.44;88760;1297;22689;-74
2022/10/08 08:18:55;;;;;;;12.70;9.70;;;;;;;16.85;79.24;100658.16;88782;1299;22072;-74
2022/10/08 08:21:00;;;;;;;11.00;8.60;;;;;;;17.07;79.09;100660.52;88781;1299;22011;-75
2022/10/08 08:23:06;;;;;;;14.80;10.10;;;;;;;17.28;78.22;100654.81;88567;1306;22172;-75
2022/10/08 08:25:12;;;;;;;14.90;9.50;;;;;;;17.45;77.95;100654.84;88806;1297;22027;-75
2022/10/08 08:27:17;;;;;;;14.00;9.10;;;;;;;17.67;77.79;100656.32;88783;1297;22071;-75
2022/10/08 08:29:23;;;;;;;17.80;9.70;;;;;;;17.84;76.58;100656.49;88764;1287;22037;-75
2022/10/08 08:31:29;;;;;;;12.20;9.60;;;;;;;17.91;75.81;100660.48;88545;1298;22093;-75
2022/10/08 08:33:35;;;;;;;9.40;8.50;;;;;;;17.99;75.80;100658.69;88547;1291;22641;-75
2022/10/08 08:35:49;;;;;;;10.30;9.30;;;;;;;18.07;74.66;100660.99;88623;1299;22658;-75
2022/10/08 08:37:54;;;;;;;13.40;9.80;;;;;;;18.14;74.63;100659.98;88713;1299;22683;-74
2022/10/08 08:40:00;;;;;;;13.90;9.40;;;;;;;18.25;74.30;100658.95;88760;1297;22424;-73
2022/10/08 08:42:16;;;;;;;11.10;8.90;;;;;;;18.33;73.13;100660.41;88745;1297;22035;-73
2022/10/08 08:44:23;;;;;;;9.90;8.60;;;;;;;18.39;73.28;100659.30;88543;1305;22072;-73
2022/10/08 08:46:31;;;;;;;9.40;8.10;;;;;;;18.49;73.10;100661.04;88760;1288;22040;-73
2022/10/08 08:48:37;;;;;;;11.70;8.60;;;;;;;18.70;73.20;100659.71;88737;1280;22556;-73
2022/10/08 08:50:43;;;;;;;12.80;8.50;;;;;;;18.93;72.96;100651.58;88405;1307;22068;-73
2022/10/08 08:52:49;;;;;;;10.10;8.40;;;;;;;19.17;72.43;100652.08;88545;1304;22062;-74
2022/10/08 08:54:54;;;;;;;9.50;8.30;;;;;;;19.45;71.91;100646.06;88749;1279;22074;-74
2022/10/08 08:57:08;;;;;;;9.60;7.30;;;;;;;19.66;71.05;100644.95;88786;1287;22038;-74
2022/10/08 08:59:24;;;;;;;12.80;8.70;;;;;;;19.91;70.81;100645.77;88768;1287;22034;-74
2022/10/08 09:01:35;;;;;;;13.70;8.80;;;;;;;20.12;70.08;100641.23;88772;1299;22696;-74
2022/10/08 09:03:43;;;;;;;8.80;7.90;;;;;;;20.34;69.28;100642.42;88539;1298;22051;-74
2022/10/08 09:05:50;;;;;;;8.70;7.60;;;;;;;20.58;68.75;100638.88;88773;1294;22011;-74
2022/10/08 09:07:58;;;;;;;9.00;8.10;;;;;;;20.86;68.34;100634.44;88579;1305;22609;-74
2022/10/08 09:10:08;;;;;;;11.00;7.30;;;;;;;21.25;67.23;100633.02;88578;1297;22078;-74
2022/10/08 09:12:16;;;;;;;;;;;;;;;21.55;66.11;100631.73;88587;1304;22164;-74
2022/10/08 09:14:36;;;;;;;12.70;8.10;;;;;;;21.79;65.18;100634.21;88577;1297;22063;-74
2022/10/08 09:16:42;;;;;;;10.00;7.30;;;;;;;22.01;64.07;100635.25;88775;1298;22657;-74
2022/10/08 09:18:49;;;;;;;7.40;6.30;;;;;;;22.23;63.80;100632.41;88758;1291;22037;-74
2022/10/08 09:20:56;;;;;;;8.90;7.10;;;;;;;22.43;63.55;100637.51;88782;1298;22090;-74
2022/10/08 09:23:01;;;;;;;7.60;6.70;;;;;;;22.55;62.56;100639.03;88570;1306;22608;-74
2022/10/08 09:25:11;;;;;;;7.60;6.80;;;;;;;22.57;61.73;100637.63;88536;1298;22117;-75
2022/10/08 09:27:18;;;;;;;7.70;7.00;;;;;;;22.53;60.91;100643.23;88555;1305;22045;-75
2022/10/08 09:29:33;;;;;;;7.30;6.50;;;;;;;22.47;60.19;100645.70;88540;1304;22033;-75
2022/10/08 09:31:46;;;;;;;12.20;6.70;;;;;;;22.35;60.24;100644.55;88540;1306;22048;-74
2022/10/08 09:34:03;;;;;;;7.90;6.40;;;;;;;22.28;60.13;100640.86;88761;1287;22085;-74
2022/10/08 09:36:09;;;;;;;8.90;6.70;;;;;;;22.20;59.45;100642.09;88546;1297;22096;-74
2022/10/08 09:38:25;;;;;;;8.40;6.90;;;;;;;22.14;59.52;100639.21;88529;1306;22062;-74
2022/10/08 09:40:30;;;;;;;9.80;7.10;;;;;;;22.06;59.64;100638.59;88763;1288;22120;-74
2022/10/08 09:42:36;;;;;;;9.10;7.20;;;;;;;22.02;59.68;100636.66;88548;1306;22718;-74
2022/10/08 09:44:42;;;;;;;11.00;7.70;;;;;;;21.95;59.65;100632.23;88766;1284;22096;-74
2022/10/08 09:47:04;;;;;;;9.10;7.20;;;;;;;21.88;59.74;100630.14;88726;1294;22161;-74
2022/10/08 09:49:28;;;;;;;9.90;7.70;;;;;;;21.79;59.59;100626.61;88569;1298;22043;-74
2022/10/08 09:51:57;;;;;;;8.20;7.40;;;;;;;21.70;59.42;100623.48;88541;1290;22058;-74
2022/10/08 09:54:05;;;;;;;7.70;6.90;;;;;;;21.62;60.02;100623.73;88495;1306;22188;-74
2022/10/08 09:56:11;;;;;;;7.30;6.70;;;;;;;21.60;60.32;100618.33;88578;1298;22064;-74
2022/10/08 09:58:18;;;;;;;11.90;7.80;;;;;;;21.63;60.54;100615.95;88770;1299;22679;-74
2022/10/08 10:00:27;;;;;;;11.90;7.90;;;;;;;21.65;60.59;100619.40;88577;1282;22627;-74